createdAt,value
2018-11-29T00:00:26.081Z,8.88
2018-11-29T00:00:52.179Z,8.99
2018-11-29T00:01:18.281Z,8.92
2018-11-29T00:01:44.390Z,9.08
2018-11-29T00:02:10.498Z,9.03
2018-11-29T00:02:36.601Z,9.04
2018-11-29T00:03:02.712Z,9.03
2018-11-29T00:03:28.820Z,9.03
2018-11-29T00:03:54.955Z,9.06
2018-11-29T00:04:21.069Z,9.04
2018-11-29T00:04:47.176Z,9.16
2018-11-29T00:05:13.279Z,9.16
2018-11-29T00:05:39.385Z,9.14
2018-11-29T00:06:05.491Z,9.14
2018-11-29T00:06:31.596Z,9.16
2018-11-29T00:06:57.701Z,9.13
2018-11-29T00:07:23.808Z,9.13
2018-11-29T00:07:49.940Z,9.21
2018-11-29T00:08:16.116Z,9.14
2018-11-29T00:08:42.219Z,9.21
2018-11-29T00:09:08.357Z,9.23
2018-11-29T00:09:34.458Z,9.23
2018-11-29T00:10:00.589Z,9.21
2018-11-29T00:10:26.700Z,9.18
2018-11-29T00:10:52.802Z,9.19
2018-11-29T00:11:18.916Z,9.14
2018-11-29T00:11:45.020Z,9.14
2018-11-29T00:12:11.115Z,9.13
2018-11-29T00:12:37.255Z,9.19
2018-11-29T00:13:03.356Z,9.13
2018-11-29T00:13:29.461Z,9.13
2018-11-29T00:13:56.056Z,9.14
2018-11-29T00:14:22.116Z,9.06
2018-11-29T00:14:48.220Z,9.06
2018-11-29T00:15:14.322Z,9.02
2018-11-29T00:15:40.462Z,9.13
2018-11-29T00:16:06.563Z,9.14
2018-11-29T00:16:32.702Z,9.19
2018-11-29T00:16:58.843Z,9.16
2018-11-29T00:17:25.392Z,9.14
2018-11-29T00:17:51.494Z,9.11
2018-11-29T00:18:17.636Z,9.08
2018-11-29T00:18:43.737Z,9.02
2018-11-29T00:19:09.841Z,9.02
2018-11-29T00:19:35.948Z,9.03
2018-11-29T00:20:02.055Z,9.04
2018-11-29T00:20:28.191Z,9.04
2018-11-29T00:20:54.299Z,9.04
2018-11-29T00:21:20.403Z,9.04
2018-11-29T00:21:46.505Z,9.08
2018-11-29T00:22:12.614Z,9.13
2018-11-29T00:22:38.717Z,9.16
2018-11-29T00:23:04.821Z,9.16
2018-11-29T00:23:30.922Z,9.25
2018-11-29T00:23:57.031Z,9.25
2018-11-29T00:24:23.139Z,9.25
2018-11-29T00:24:49.247Z,9.14
2018-11-29T00:25:15.358Z,9.26
2018-11-29T00:25:41.457Z,9.25
2018-11-29T00:26:07.560Z,9.18
2018-11-29T00:26:33.672Z,9.23
2018-11-29T00:26:59.777Z,9.18
2018-11-29T00:27:25.884Z,9.16
2018-11-29T00:27:51.989Z,9.21
2018-11-29T00:28:18.092Z,9.22
2018-11-29T00:28:44.201Z,9.25
2018-11-29T00:29:10.309Z,9.19
2018-11-29T00:29:36.414Z,9.31
2018-11-29T00:30:02.515Z,9.25
2018-11-29T00:30:28.626Z,9.32
2018-11-29T00:30:54.730Z,9.23
2018-11-29T00:31:20.849Z,9.22
2018-11-29T00:31:46.948Z,9.26
2018-11-29T00:32:13.055Z,9.28
2018-11-29T00:32:39.161Z,9.32
2018-11-29T00:33:05.293Z,9.32
2018-11-29T00:33:31.424Z,9.25
2018-11-29T00:33:57.567Z,9.21
2018-11-29T00:34:23.670Z,9.23
2018-11-29T00:34:49.778Z,9.23
2018-11-29T00:35:15.882Z,9.21
2018-11-29T00:35:42.054Z,9.26
2018-11-29T00:36:08.181Z,9.22
2018-11-29T00:36:34.283Z,9.29
2018-11-29T00:37:00.396Z,9.26
2018-11-29T00:37:26.497Z,9.23
2018-11-29T00:37:52.604Z,9.25
2018-11-29T00:38:18.708Z,9.25
2018-11-29T00:38:44.815Z,9.23
2018-11-29T00:39:10.921Z,9.22
2018-11-29T00:39:37.032Z,9.19
2018-11-29T00:40:03.138Z,9.21
2018-11-29T00:40:29.252Z,9.21
2018-11-29T00:40:55.347Z,9.22
2018-11-29T00:41:21.455Z,9.26
2018-11-29T00:41:47.562Z,9.29
2018-11-29T00:42:13.673Z,9.32
2018-11-29T00:42:39.779Z,9.39
2018-11-29T00:43:05.881Z,9.44
2018-11-29T00:43:31.998Z,9.4
2018-11-29T00:43:58.102Z,9.34
2018-11-29T00:44:24.212Z,9.34
2018-11-29T00:44:50.315Z,9.4
2018-11-29T00:45:16.449Z,9.41
2018-11-29T00:45:42.555Z,9.36
2018-11-29T00:46:08.653Z,9.29
2018-11-29T00:46:34.757Z,9.32
2018-11-29T00:47:00.867Z,9.34
2018-11-29T00:47:26.965Z,9.29
2018-11-29T00:47:53.081Z,9.29
2018-11-29T00:48:19.182Z,9.34
2018-11-29T00:48:45.288Z,9.39
2018-11-29T00:49:11.393Z,9.34
2018-11-29T00:49:37.496Z,9.41
2018-11-29T00:50:03.601Z,9.39
2018-11-29T00:50:29.708Z,9.36
2018-11-29T00:50:55.826Z,9.34
2018-11-29T00:51:21.925Z,9.32
2018-11-29T00:51:48.056Z,9.29
2018-11-29T00:52:14.158Z,9.34
2018-11-29T00:52:40.267Z,9.51
2018-11-29T00:53:06.409Z,9.46
2018-11-29T00:53:32.542Z,9.41
2018-11-29T00:53:58.644Z,9.4
2018-11-29T00:54:24.750Z,9.51
2018-11-29T00:54:50.860Z,9.43
2018-11-29T00:55:16.962Z,9.37
2018-11-29T00:55:43.065Z,9.48
2018-11-29T00:56:09.200Z,9.54
2018-11-29T00:56:35.310Z,9.48
2018-11-29T00:57:01.409Z,9.58
2018-11-29T00:57:27.526Z,9.58
2018-11-29T00:57:53.634Z,9.58
2018-11-29T00:58:19.732Z,9.55
2018-11-29T00:58:45.836Z,9.54
2018-11-29T00:59:11.943Z,9.56
2018-11-29T00:59:38.046Z,9.58
2018-11-29T01:00:04.149Z,9.56
2018-11-29T01:00:30.257Z,9.55
2018-11-29T01:00:56.366Z,9.5
2018-11-29T01:01:22.463Z,9.37
2018-11-29T01:01:48.573Z,9.46
2018-11-29T01:02:14.680Z,9.41
2018-11-29T01:02:40.789Z,9.47
2018-11-29T01:03:06.894Z,9.47
2018-11-29T01:03:33.000Z,9.47
2018-11-29T01:03:59.134Z,9.54
2018-11-29T01:04:25.231Z,9.47
2018-11-29T01:04:51.338Z,9.51
2018-11-29T01:05:17.471Z,9.56
2018-11-29T01:05:43.580Z,9.55
2018-11-29T01:06:09.690Z,9.62
2018-11-29T01:06:35.792Z,9.48
2018-11-29T01:07:01.899Z,9.59
2018-11-29T01:07:28.006Z,9.55
2018-11-29T01:07:54.107Z,9.59
2018-11-29T01:08:20.247Z,9.56
2018-11-29T01:08:46.357Z,9.58
2018-11-29T01:09:12.459Z,9.56
2018-11-29T01:09:39.573Z,9.56
2018-11-29T01:10:05.683Z,9.59
2018-11-29T01:10:31.789Z,9.61
2018-11-29T01:10:57.897Z,9.58
2018-11-29T01:11:23.992Z,9.51
2018-11-29T01:11:50.134Z,9.55
2018-11-29T01:12:16.231Z,9.65
2018-11-29T01:12:42.341Z,9.59
2018-11-29T01:13:08.468Z,9.56
2018-11-29T01:13:34.578Z,9.65
2018-11-29T01:14:00.686Z,9.59
2018-11-29T01:14:26.792Z,9.66
2018-11-29T01:14:52.894Z,9.64
2018-11-29T01:15:19.006Z,9.72
2018-11-29T01:15:45.105Z,9.61
2018-11-29T01:16:11.216Z,9.62
2018-11-29T01:16:37.324Z,9.61
2018-11-29T01:17:03.434Z,9.61
2018-11-29T01:17:29.536Z,9.61
2018-11-29T01:17:55.642Z,9.66
2018-11-29T01:18:21.781Z,9.62
2018-11-29T01:18:47.886Z,9.64
2018-11-29T01:19:13.981Z,9.68
2018-11-29T01:19:40.090Z,9.61
2018-11-29T01:20:06.824Z,9.68
2018-11-29T01:20:32.908Z,9.65
2018-11-29T01:20:59.017Z,9.64
2018-11-29T01:21:25.110Z,9.68
2018-11-29T01:21:51.240Z,9.59
2018-11-29T01:22:17.350Z,9.61
2018-11-29T01:22:43.462Z,9.66
2018-11-29T01:23:09.565Z,9.62
2018-11-29T01:23:35.676Z,9.56
2018-11-29T01:24:01.779Z,9.64
2018-11-29T01:24:27.884Z,9.74
2018-11-29T01:24:53.991Z,9.73
2018-11-29T01:25:20.103Z,9.69
2018-11-29T01:25:46.236Z,9.69
2018-11-29T01:26:12.376Z,9.74
2018-11-29T01:26:38.482Z,9.72
2018-11-29T01:27:04.589Z,9.79
2018-11-29T01:27:30.690Z,9.73
2018-11-29T01:27:56.801Z,9.69
2018-11-29T01:28:22.936Z,9.73
2018-11-29T01:28:49.045Z,9.69
2018-11-29T01:29:15.147Z,9.72
2018-11-29T01:29:41.251Z,9.72
2018-11-29T01:30:07.352Z,9.61
2018-11-29T01:30:33.466Z,9.61
2018-11-29T01:30:59.570Z,9.69
2018-11-29T01:31:25.708Z,9.64
2018-11-29T01:31:51.806Z,9.64
2018-11-29T01:32:17.916Z,9.73
2018-11-29T01:32:44.019Z,9.77
2018-11-29T01:33:10.154Z,9.72
2018-11-29T01:33:36.258Z,9.76
2018-11-29T01:34:02.388Z,9.72
2018-11-29T01:34:28.493Z,9.82
2018-11-29T01:34:54.596Z,9.74
2018-11-29T01:35:20.713Z,9.76
2018-11-29T01:35:46.866Z,9.76
2018-11-29T01:36:12.976Z,9.77
2018-11-29T01:36:39.082Z,9.8
2018-11-29T01:37:05.218Z,9.76
2018-11-29T01:37:31.322Z,9.66
2018-11-29T01:37:57.428Z,9.73
2018-11-29T01:38:23.537Z,9.68
2018-11-29T01:38:49.640Z,9.76
2018-11-29T01:39:15.742Z,9.8
2018-11-29T01:39:41.854Z,9.86
2018-11-29T01:40:07.964Z,9.76
2018-11-29T01:40:34.100Z,9.77
2018-11-29T01:41:00.235Z,9.79
2018-11-29T01:41:26.343Z,9.77
2018-11-29T01:41:52.451Z,9.8
2018-11-29T01:42:18.559Z,9.84
2018-11-29T01:42:44.660Z,9.79
2018-11-29T01:43:10.770Z,9.86
2018-11-29T01:43:36.879Z,9.83
2018-11-29T01:44:03.019Z,9.83
2018-11-29T01:44:29.135Z,9.86
2018-11-29T01:44:55.265Z,9.95
2018-11-29T01:45:21.375Z,9.94
2018-11-29T01:45:47.475Z,10.02
2018-11-29T01:46:13.582Z,9.95
2018-11-29T01:46:39.707Z,9.95
2018-11-29T01:47:05.817Z,9.95
2018-11-29T01:47:31.920Z,9.95
2018-11-29T01:47:58.057Z,9.99
2018-11-29T01:48:24.170Z,10.02
2018-11-29T01:48:50.279Z,9.95
2018-11-29T01:49:16.380Z,9.95
2018-11-29T01:49:42.485Z,9.92
2018-11-29T01:50:08.617Z,9.94
2018-11-29T01:50:34.719Z,10.01
2018-11-29T01:51:00.822Z,9.97
2018-11-29T01:51:26.932Z,10.04
2018-11-29T01:51:53.034Z,9.98
2018-11-29T01:52:19.195Z,9.98
2018-11-29T01:52:45.298Z,9.94
2018-11-29T01:53:11.430Z,9.95
2018-11-29T01:53:37.540Z,9.92
2018-11-29T01:54:03.647Z,9.91
2018-11-29T01:54:29.779Z,9.97
2018-11-29T01:54:58.921Z,9.82
2018-11-29T01:55:25.031Z,9.95
2018-11-29T01:55:51.189Z,9.94
2018-11-29T01:56:17.291Z,9.92
2018-11-29T01:56:43.400Z,9.99
2018-11-29T01:57:09.535Z,9.97
2018-11-29T01:57:35.637Z,9.87
2018-11-29T01:58:01.781Z,10.1
2018-11-29T01:58:27.884Z,10.1
2018-11-29T01:58:53.991Z,10.07
2018-11-29T01:59:20.094Z,10.04
2018-11-29T01:59:46.199Z,10.05
2018-11-29T02:00:12.312Z,10.05
2018-11-29T02:00:38.436Z,10.01
2018-11-29T02:01:04.545Z,9.95
2018-11-29T02:01:30.652Z,10.01
2018-11-29T02:01:56.758Z,10.12
2018-11-29T02:02:22.884Z,10.04
2018-11-29T02:02:48.996Z,9.97
2018-11-29T02:03:15.109Z,10.1
2018-11-29T02:03:41.220Z,10.01
2018-11-29T02:04:07.329Z,10.05
2018-11-29T02:04:33.432Z,10.09
2018-11-29T02:04:59.573Z,10.12
2018-11-29T02:05:25.684Z,10.07
2018-11-29T02:05:51.812Z,10.04
2018-11-29T02:06:17.918Z,10.13
2018-11-29T02:06:44.026Z,10.09
2018-11-29T02:07:10.140Z,10.04
2018-11-29T02:07:36.238Z,10.16
2018-11-29T02:08:02.353Z,10.17
2018-11-29T02:08:28.455Z,10.17
2018-11-29T02:08:54.557Z,10.13
2018-11-29T02:09:20.667Z,10.17
2018-11-29T02:09:46.780Z,10.15
2018-11-29T02:10:12.878Z,10.17
2018-11-29T02:10:38.984Z,10.16
2018-11-29T02:11:05.092Z,10.12
2018-11-29T02:11:31.199Z,10.2
2018-11-29T02:11:57.304Z,10.19
2018-11-29T02:12:23.407Z,10.2
2018-11-29T02:12:49.519Z,10.17
2018-11-29T02:13:15.625Z,10.19
2018-11-29T02:13:41.734Z,10.22
2018-11-29T02:14:07.834Z,10.16
2018-11-29T02:14:33.949Z,10.09
2018-11-29T02:15:00.059Z,10.04
2018-11-29T02:15:26.161Z,10.05
2018-11-29T02:15:52.264Z,10.07
2018-11-29T02:16:18.379Z,10.12
2018-11-29T02:16:44.504Z,9.99
2018-11-29T02:17:10.609Z,10.16
2018-11-29T02:17:36.712Z,10.13
2018-11-29T02:18:02.825Z,10.15
2018-11-29T02:18:28.930Z,10.16
2018-11-29T02:18:55.042Z,10.15
2018-11-29T02:19:21.147Z,10.13
2018-11-29T02:19:47.274Z,10.16
2018-11-29T02:20:13.374Z,10.19
2018-11-29T02:20:39.510Z,10.22
2018-11-29T02:21:05.624Z,10.19
2018-11-29T02:21:32.127Z,10.19
2018-11-29T02:21:58.226Z,10.13
2018-11-29T02:22:24.335Z,10.07
2018-11-29T02:22:50.448Z,10.17
2018-11-29T02:23:16.549Z,10.19
2018-11-29T02:23:42.655Z,10.15
2018-11-29T02:24:08.757Z,10.19
2018-11-29T02:24:34.862Z,10.19
2018-11-29T02:25:00.969Z,10.2
2018-11-29T02:25:27.066Z,10.23
2018-11-29T02:25:53.172Z,10.23
2018-11-29T02:26:19.278Z,10.2
2018-11-29T02:26:45.385Z,10.2
2018-11-29T02:27:11.487Z,10.25
2018-11-29T02:27:37.595Z,10.13
2018-11-29T02:28:03.706Z,10.17
2018-11-29T02:28:29.813Z,10.16
2018-11-29T02:28:55.920Z,10.16
2018-11-29T02:29:22.020Z,10.16
2018-11-29T02:29:48.131Z,10.19
2018-11-29T02:30:14.268Z,10.16
2018-11-29T02:30:40.396Z,10.17
2018-11-29T02:31:06.530Z,10.19
2018-11-29T02:31:32.644Z,10.17
2018-11-29T02:31:58.746Z,10.1
2018-11-29T02:32:24.886Z,10.15
2018-11-29T02:32:51.010Z,10.13
2018-11-29T02:33:17.114Z,10.19
2018-11-29T02:33:43.218Z,10.15
2018-11-29T02:34:09.403Z,10.15
2018-11-29T02:34:35.506Z,10.2
2018-11-29T02:35:01.624Z,10.2
2018-11-29T02:35:27.721Z,10.25
2018-11-29T02:35:53.822Z,10.22
2018-11-29T02:36:19.931Z,10.3
2018-11-29T02:36:46.032Z,10.28
2018-11-29T02:37:12.137Z,10.28
2018-11-29T02:37:38.301Z,10.33
2018-11-29T02:38:04.429Z,10.17
2018-11-29T02:38:30.537Z,10.25
2018-11-29T02:38:56.707Z,10.2
2018-11-29T02:39:22.814Z,10.22
2018-11-29T02:39:48.918Z,10.31
2018-11-29T02:40:15.023Z,10.28
2018-11-29T02:40:41.163Z,10.23
2018-11-29T02:41:07.309Z,10.17
2018-11-29T02:41:33.408Z,10.15
2018-11-29T02:41:59.510Z,10.22
2018-11-29T02:42:25.650Z,10.28
2018-11-29T02:42:51.789Z,10.25
2018-11-29T02:43:17.921Z,10.3
2018-11-29T02:43:44.056Z,10.26
2018-11-29T02:44:10.160Z,10.26
2018-11-29T02:44:36.295Z,10.28
2018-11-29T02:45:02.394Z,10.3
2018-11-29T02:45:28.530Z,10.3
2018-11-29T02:45:54.637Z,10.31
2018-11-29T02:46:20.773Z,10.25
2018-11-29T02:46:46.872Z,10.31
2018-11-29T02:47:13.032Z,10.34
2018-11-29T02:47:39.143Z,10.25
2018-11-29T02:48:05.272Z,10.19
2018-11-29T02:48:31.376Z,10.35
2018-11-29T02:48:57.504Z,10.28
2018-11-29T02:49:23.614Z,10.25
2018-11-29T02:49:49.717Z,10.28
2018-11-29T02:50:15.830Z,10.23
2018-11-29T02:50:41.931Z,10.28
2018-11-29T02:51:08.040Z,10.28
2018-11-29T02:51:34.147Z,10.26
2018-11-29T02:52:00.277Z,10.19
2018-11-29T02:52:26.382Z,10.3
2018-11-29T02:52:52.488Z,10.31
2018-11-29T02:53:18.601Z,10.28
2018-11-29T02:53:44.733Z,10.23
2018-11-29T02:54:10.862Z,10.3
2018-11-29T02:54:36.977Z,10.28
2018-11-29T02:55:03.101Z,10.4
2018-11-29T02:55:29.186Z,10.37
2018-11-29T02:55:55.289Z,10.37
2018-11-29T02:56:21.400Z,10.28
2018-11-29T02:56:47.493Z,10.35
2018-11-29T02:57:13.600Z,10.33
2018-11-29T02:57:39.739Z,10.31
2018-11-29T02:58:05.845Z,10.26
2018-11-29T02:58:31.948Z,10.38
2018-11-29T02:58:58.086Z,10.31
2018-11-29T02:59:24.199Z,10.37
2018-11-29T02:59:50.365Z,10.33
2018-11-29T03:00:16.466Z,10.41
2018-11-29T03:00:42.577Z,10.38
2018-11-29T03:01:08.723Z,10.44
2018-11-29T03:01:34.828Z,10.44
2018-11-29T03:02:00.924Z,10.28
2018-11-29T03:02:27.033Z,10.48
2018-11-29T03:02:53.144Z,10.33
2018-11-29T03:03:19.306Z,10.31
2018-11-29T03:03:45.442Z,10.3
2018-11-29T03:04:11.548Z,10.33
2018-11-29T03:04:37.647Z,10.28
2018-11-29T03:05:03.751Z,10.38
2018-11-29T03:05:29.868Z,10.3
2018-11-29T03:05:56.005Z,10.38
2018-11-29T03:06:22.109Z,10.37
2018-11-29T03:06:48.257Z,10.3
2018-11-29T03:07:14.383Z,10.3
2018-11-29T03:07:40.489Z,10.3
2018-11-29T03:08:06.654Z,10.3
2018-11-29T03:08:32.788Z,10.37
2018-11-29T03:08:58.896Z,10.44
2018-11-29T03:09:25.021Z,10.4
2018-11-29T03:09:51.125Z,10.4
2018-11-29T03:10:17.260Z,10.4
2018-11-29T03:10:43.360Z,10.42
2018-11-29T03:11:09.465Z,10.37
2018-11-29T03:11:35.576Z,10.46
2018-11-29T03:12:01.677Z,10.42
2018-11-29T03:12:27.813Z,10.41
2018-11-29T03:12:53.924Z,10.42
2018-11-29T03:13:20.056Z,10.42
2018-11-29T03:13:46.158Z,10.38
2018-11-29T03:14:12.301Z,10.44
2018-11-29T03:14:38.364Z,10.4
2018-11-29T03:15:04.473Z,10.41
2018-11-29T03:15:30.577Z,10.41
2018-11-29T03:15:56.761Z,10.4
2018-11-29T03:16:22.887Z,10.48
2018-11-29T03:16:48.999Z,10.46
2018-11-29T03:17:15.103Z,10.42
2018-11-29T03:17:41.249Z,10.4
2018-11-29T03:18:07.430Z,10.4
2018-11-29T03:18:33.563Z,10.4
2018-11-29T03:18:59.697Z,10.42
2018-11-29T03:19:25.838Z,10.48
2018-11-29T03:19:51.966Z,10.41
2018-11-29T03:20:18.098Z,10.56
2018-11-29T03:20:44.208Z,10.42
2018-11-29T03:21:10.344Z,10.4
2018-11-29T03:21:36.477Z,10.51
2018-11-29T03:22:02.594Z,10.51
2018-11-29T03:22:28.689Z,10.57
2018-11-29T03:22:54.825Z,10.42
2018-11-29T03:23:20.925Z,10.53
2018-11-29T03:23:47.088Z,10.4
2018-11-29T03:24:13.222Z,10.54
2018-11-29T03:24:39.363Z,10.53
2018-11-29T03:25:05.527Z,10.46
2018-11-29T03:25:31.703Z,10.53
2018-11-29T03:25:57.827Z,10.44
2018-11-29T03:26:23.968Z,10.49
2018-11-29T03:26:50.100Z,10.48
2018-11-29T03:27:16.258Z,10.49
2018-11-29T03:27:42.448Z,10.53
2018-11-29T03:28:08.579Z,10.49
2018-11-29T03:28:35.019Z,10.49
2018-11-29T03:29:01.090Z,10.53
2018-11-29T03:29:27.193Z,10.49
2018-11-29T03:29:53.332Z,10.56
2018-11-29T03:30:19.462Z,10.59
2018-11-29T03:30:45.619Z,10.59
2018-11-29T03:31:11.781Z,10.63
2018-11-29T03:31:37.947Z,10.69
2018-11-29T03:32:04.174Z,10.67
2018-11-29T03:32:30.308Z,10.68
2018-11-29T03:32:56.443Z,10.63
2018-11-29T03:33:22.579Z,10.68
2018-11-29T03:33:48.763Z,10.64
2018-11-29T03:34:14.869Z,10.63
2018-11-29T03:34:40.978Z,10.72
2018-11-29T03:35:07.077Z,10.63
2018-11-29T03:35:33.193Z,10.59
2018-11-29T03:36:00.285Z,10.64
2018-11-29T03:36:26.388Z,10.59
2018-11-29T03:36:52.501Z,10.63
2018-11-29T03:37:18.609Z,10.59
2018-11-29T03:37:44.757Z,10.49
2018-11-29T03:38:10.871Z,10.63
2018-11-29T03:38:36.975Z,10.64
2018-11-29T03:39:03.084Z,10.69
2018-11-29T03:39:29.193Z,10.71
2018-11-29T03:39:55.299Z,10.84
2018-11-29T03:40:21.409Z,10.75
2018-11-29T03:40:47.516Z,10.72
2018-11-29T03:41:13.652Z,10.72
2018-11-29T03:41:39.757Z,10.61
2018-11-29T03:42:05.867Z,10.71
2018-11-29T03:42:32.003Z,10.76
2018-11-29T03:42:58.136Z,10.74
2018-11-29T03:43:24.245Z,10.72
2018-11-29T03:43:50.383Z,10.75
2018-11-29T03:44:16.487Z,10.79
2018-11-29T03:44:42.629Z,10.71
2018-11-29T03:45:08.734Z,10.72
2018-11-29T03:45:34.862Z,10.64
2018-11-29T03:46:00.972Z,10.68
2018-11-29T03:46:27.083Z,10.69
2018-11-29T03:46:53.215Z,10.71
2018-11-29T03:47:19.385Z,10.64
2018-11-29T03:47:45.496Z,10.68
2018-11-29T03:48:11.685Z,10.72
2018-11-29T03:48:37.792Z,10.76
2018-11-29T03:49:03.923Z,10.78
2018-11-29T03:49:30.037Z,10.79
2018-11-29T03:49:56.145Z,10.81
2018-11-29T03:50:22.274Z,10.81
2018-11-29T03:50:48.410Z,10.78
2018-11-29T03:51:14.518Z,10.75
2018-11-29T03:51:40.684Z,10.78
2018-11-29T03:52:06.817Z,10.75
2018-11-29T03:52:32.950Z,10.84
2018-11-29T03:52:59.054Z,10.81
2018-11-29T03:53:25.157Z,10.89
2018-11-29T03:53:51.261Z,10.82
2018-11-29T03:54:17.374Z,10.68
2018-11-29T03:54:43.524Z,10.72
2018-11-29T03:55:09.628Z,10.72
2018-11-29T03:55:35.734Z,10.75
2018-11-29T03:56:01.847Z,10.68
2018-11-29T03:56:27.943Z,10.67
2018-11-29T03:56:54.049Z,10.64
2018-11-29T03:57:20.154Z,10.67
2018-11-29T03:57:46.261Z,10.71
2018-11-29T03:58:12.362Z,10.69
2018-11-29T03:58:38.465Z,10.74
2018-11-29T03:59:04.576Z,10.64
2018-11-29T03:59:30.720Z,10.71
2018-11-29T03:59:56.816Z,10.74
2018-11-29T04:00:22.928Z,10.79
2018-11-29T04:00:49.040Z,10.79
2018-11-29T04:01:15.142Z,10.79
2018-11-29T04:01:41.247Z,10.79
2018-11-29T04:02:07.388Z,10.74
2018-11-29T04:02:33.497Z,10.87
2018-11-29T04:02:59.634Z,10.79
2018-11-29T04:03:25.747Z,10.81
2018-11-29T04:03:51.846Z,10.79
2018-11-29T04:04:17.981Z,10.84
2018-11-29T04:04:44.091Z,10.94
2018-11-29T04:05:10.251Z,10.81
2018-11-29T04:05:36.386Z,10.86
2018-11-29T04:06:02.496Z,10.74
2018-11-29T04:06:28.603Z,10.72
2018-11-29T04:06:54.710Z,10.74
2018-11-29T04:07:20.835Z,10.72
2018-11-29T04:07:46.942Z,10.79
2018-11-29T04:08:13.051Z,10.74
2018-11-29T04:08:39.159Z,10.72
2018-11-29T04:09:05.263Z,10.72
2018-11-29T04:09:31.367Z,10.72
2018-11-29T04:09:57.537Z,10.76
2018-11-29T04:10:23.645Z,10.76
2018-11-29T04:10:49.760Z,10.74
2018-11-29T04:11:15.861Z,10.72
2018-11-29T04:11:41.967Z,10.74
2018-11-29T04:12:08.107Z,10.74
2018-11-29T04:12:34.268Z,10.74
2018-11-29T04:13:00.441Z,10.72
2018-11-29T04:13:26.571Z,10.74
2018-11-29T04:13:52.707Z,10.75
2018-11-29T04:14:18.848Z,10.74
2018-11-29T04:14:44.971Z,10.71
2018-11-29T04:15:11.109Z,10.74
2018-11-29T04:15:37.211Z,10.71
2018-11-29T04:16:03.315Z,10.71
2018-11-29T04:16:29.421Z,10.63
2018-11-29T04:16:55.548Z,10.67
2018-11-29T04:17:21.658Z,10.71
2018-11-29T04:17:48.753Z,10.71
2018-11-29T04:18:14.868Z,10.71
2018-11-29T04:18:40.976Z,10.72
2018-11-29T04:19:07.135Z,10.71
2018-11-29T04:19:33.267Z,10.71
2018-11-29T04:19:59.373Z,10.74
2018-11-29T04:20:25.481Z,10.71
2018-11-29T04:20:51.609Z,10.74
2018-11-29T04:21:17.706Z,10.75
2018-11-29T04:21:43.816Z,10.78
2018-11-29T04:22:09.928Z,10.71
2018-11-29T04:22:36.056Z,10.74
2018-11-29T04:23:02.161Z,10.74
2018-11-29T04:23:28.264Z,10.72
2018-11-29T04:23:54.398Z,10.75
2018-11-29T04:24:20.521Z,10.74
2018-11-29T04:24:46.621Z,10.74
2018-11-29T04:25:12.770Z,10.72
2018-11-29T04:25:38.872Z,10.74
2018-11-29T04:26:05.063Z,10.72
2018-11-29T04:26:31.171Z,10.74
2018-11-29T04:26:57.281Z,10.75
2018-11-29T04:27:23.414Z,10.79
2018-11-29T04:27:49.524Z,10.81
2018-11-29T04:28:15.633Z,10.82
2018-11-29T04:28:41.738Z,10.86
2018-11-29T04:29:07.868Z,10.74
2018-11-29T04:29:34.004Z,10.72
2018-11-29T04:30:00.107Z,10.72
2018-11-29T04:30:26.210Z,10.69
2018-11-29T04:30:52.319Z,10.71
2018-11-29T04:31:18.427Z,10.74
2018-11-29T04:31:44.564Z,10.79
2018-11-29T04:32:10.691Z,10.78
2018-11-29T04:32:36.800Z,10.84
2018-11-29T04:33:03.802Z,10.81
2018-11-29T04:33:29.970Z,10.75
2018-11-29T04:33:56.069Z,10.79
2018-11-29T04:34:22.198Z,10.78
2018-11-29T04:34:48.363Z,10.79
2018-11-29T04:35:14.536Z,10.79
2018-11-29T04:35:40.669Z,10.82
2018-11-29T04:36:06.802Z,10.81
2018-11-29T04:36:32.940Z,10.79
2018-11-29T04:36:59.075Z,10.89
2018-11-29T04:37:25.182Z,10.82
2018-11-29T04:37:51.283Z,10.81
2018-11-29T04:38:17.390Z,11.04
2018-11-29T04:38:43.493Z,10.82
2018-11-29T04:39:09.661Z,10.86
2018-11-29T04:39:35.767Z,10.82
2018-11-29T04:40:01.878Z,10.79
2018-11-29T04:40:28.013Z,10.87
2018-11-29T04:40:54.118Z,10.76
2018-11-29T04:41:20.282Z,10.81
2018-11-29T04:41:46.416Z,10.96
2018-11-29T04:42:12.527Z,10.86
2018-11-29T04:42:38.633Z,10.79
2018-11-29T04:43:04.741Z,10.82
2018-11-29T04:43:30.870Z,10.9
2018-11-29T04:43:57.878Z,10.97
2018-11-29T04:44:23.192Z,11.02
2018-11-29T04:44:49.332Z,10.97
2018-11-29T04:45:15.437Z,10.93
2018-11-29T04:45:41.569Z,10.97
2018-11-29T04:46:07.678Z,11
2018-11-29T04:46:33.789Z,11.07
2018-11-29T04:46:59.949Z,10.94
2018-11-29T04:47:26.054Z,10.97
2018-11-29T04:47:52.157Z,10.93
2018-11-29T04:48:19.285Z,10.94
2018-11-29T04:48:45.449Z,10.97
2018-11-29T04:49:11.552Z,11
2018-11-29T04:49:37.666Z,10.99
2018-11-29T04:50:03.805Z,10.96
2018-11-29T04:50:29.943Z,10.94
2018-11-29T04:50:56.045Z,11.07
2018-11-29T04:51:22.158Z,10.99
2018-11-29T04:51:48.259Z,10.97
2018-11-29T04:52:14.436Z,10.9
2018-11-29T04:52:40.528Z,10.99
2018-11-29T04:53:06.635Z,10.93
2018-11-29T04:53:32.745Z,10.93
2018-11-29T04:53:58.876Z,11.02
2018-11-29T04:54:25.074Z,10.93
2018-11-29T04:54:51.212Z,10.99
2018-11-29T04:55:17.320Z,10.94
2018-11-29T04:55:43.427Z,11
2018-11-29T04:56:09.569Z,10.96
2018-11-29T04:56:35.698Z,10.92
2018-11-29T04:57:01.805Z,11
2018-11-29T04:57:27.910Z,10.94
2018-11-29T04:57:54.020Z,10.97
2018-11-29T04:58:20.123Z,10.96
2018-11-29T04:58:46.234Z,11
2018-11-29T04:59:12.333Z,10.97
2018-11-29T04:59:38.472Z,11
2018-11-29T05:00:04.570Z,10.93
2018-11-29T05:00:30.680Z,11.02
2018-11-29T05:00:56.818Z,10.94
2018-11-29T05:01:22.943Z,11.02
2018-11-29T05:01:49.052Z,10.97
2018-11-29T05:02:15.215Z,10.99
2018-11-29T05:02:41.631Z,10.97
2018-11-29T05:03:07.737Z,10.94
2018-11-29T05:03:33.837Z,10.99
2018-11-29T05:03:59.941Z,10.97
2018-11-29T05:04:26.053Z,10.96
2018-11-29T05:04:52.188Z,10.97
2018-11-29T05:05:18.316Z,11.02
2018-11-29T05:05:44.428Z,10.96
2018-11-29T05:06:10.531Z,11.02
2018-11-29T05:06:36.664Z,10.99
2018-11-29T05:07:02.798Z,10.99
2018-11-29T05:07:28.905Z,11
2018-11-29T05:07:55.037Z,10.94
2018-11-29T05:08:21.139Z,10.97
2018-11-29T05:08:47.253Z,10.86
2018-11-29T05:09:13.377Z,10.99
2018-11-29T05:09:39.486Z,10.93
2018-11-29T05:10:05.633Z,10.93
2018-11-29T05:10:31.761Z,10.92
2018-11-29T05:10:57.857Z,10.99
2018-11-29T05:11:23.974Z,10.97
2018-11-29T05:11:50.162Z,11.04
2018-11-29T05:12:16.273Z,10.97
2018-11-29T05:12:42.369Z,11
2018-11-29T05:13:08.513Z,10.97
2018-11-29T05:13:34.617Z,10.99
2018-11-29T05:14:00.728Z,11.07
2018-11-29T05:14:26.861Z,11.02
2018-11-29T05:14:52.969Z,11.05
2018-11-29T05:15:19.072Z,11.02
2018-11-29T05:15:45.205Z,10.99
2018-11-29T05:16:11.373Z,11
2018-11-29T05:16:37.478Z,10.97
2018-11-29T05:17:03.587Z,11
2018-11-29T05:17:29.720Z,11.04
2018-11-29T05:17:55.831Z,10.9
2018-11-29T05:18:21.937Z,11.04
2018-11-29T05:18:48.077Z,11.02
2018-11-29T05:19:14.211Z,11.05
2018-11-29T05:19:40.320Z,11
2018-11-29T05:20:06.479Z,10.94
2018-11-29T05:20:32.613Z,10.96
2018-11-29T05:20:58.714Z,10.89
2018-11-29T05:21:24.881Z,11.04
2018-11-29T05:21:50.986Z,10.97
2018-11-29T05:22:17.089Z,10.94
2018-11-29T05:22:43.195Z,10.93
2018-11-29T05:23:09.295Z,10.94
2018-11-29T05:23:35.435Z,10.99
2018-11-29T05:24:01.575Z,11.02
2018-11-29T05:24:27.708Z,11.04
2018-11-29T05:24:53.818Z,10.99
2018-11-29T05:25:19.931Z,11.04
2018-11-29T05:25:46.041Z,11
2018-11-29T05:26:12.174Z,10.97
2018-11-29T05:26:38.271Z,11.02
2018-11-29T05:27:04.407Z,11.02
2018-11-29T05:27:30.512Z,10.96
2018-11-29T05:27:56.609Z,11.04
2018-11-29T05:28:22.723Z,11
2018-11-29T05:28:48.849Z,10.99
2018-11-29T05:29:14.982Z,10.94
2018-11-29T05:29:41.091Z,11
2018-11-29T05:30:07.221Z,11.05
2018-11-29T05:30:33.330Z,10.97
2018-11-29T05:30:59.432Z,11.02
2018-11-29T05:31:25.539Z,10.92
2018-11-29T05:31:51.638Z,11.02
2018-11-29T05:32:17.768Z,10.96
2018-11-29T05:32:43.872Z,11.04
2018-11-29T05:33:09.977Z,10.96
2018-11-29T05:33:36.103Z,10.9
2018-11-29T05:34:02.219Z,10.96
2018-11-29T05:34:28.327Z,10.96
2018-11-29T05:34:54.457Z,10.87
2018-11-29T05:35:20.565Z,10.9
2018-11-29T05:35:46.670Z,10.89
2018-11-29T05:36:12.834Z,10.79
2018-11-29T05:36:38.937Z,10.75
2018-11-29T05:37:05.072Z,10.78
2018-11-29T05:37:31.187Z,10.86
2018-11-29T05:37:57.347Z,10.87
2018-11-29T05:38:23.454Z,10.94
2018-11-29T05:38:49.556Z,10.84
2018-11-29T05:39:15.665Z,10.92
2018-11-29T05:39:41.779Z,10.89
2018-11-29T05:40:07.880Z,10.93
2018-11-29T05:40:33.984Z,10.84
2018-11-29T05:41:00.114Z,10.82
2018-11-29T05:41:26.223Z,10.89
2018-11-29T05:41:52.330Z,10.89